This is the latest recevied weather packets stored in our database for station/object KD8PH. If no packets are shown the sender has not sent any weather packets the latest 1 day(s).
| Time | Temp. | Humidity | Pressure | Rain* | Wind** | Luminosity | Snow |
|---|---|---|---|---|---|---|---|
| 1778096138 | 20° C | 84% | 1010.6 hPa | 0 mm | - | - | - |
| 1778095534 | 20.56° C | 83% | 1010.9 hPa | 0 mm | - | - | - |
| 1778094941 | 20.56° C | 82% | 1010.7 hPa | 0 mm | - | - | - |
| 1778093741 | 23.89° C | 79% | 1011.1 hPa | 0 mm | - | - | - |
| 1778092538 | 24.44° C | 78% | 1011.1 hPa | 0 mm | - | - | - |
| 1778090140 | 23.33° C | 80% | 1011 hPa | 0 mm | - | - | - |
| 1778087136 | 22.78° C | 81% | 1011.6 hPa | 0 mm | - | - | - |
| 1778085937 | 22.78° C | 82% | 1011.4 hPa | 0 mm | - | - | - |
| 1778082950 | 22.22° C | 82% | 1011.3 hPa | 0 mm | - | - | - |
| 1778082350 | 22.22° C | 82% | 1011.2 hPa | 0 mm | - | - | - |
| 1778081754 | 22.22° C | 82% | 1011.5 hPa | 0 mm | - | - | - |
| 1778081140 | 21.67° C | 83% | 1011.5 hPa | 0 mm | - | - | - |
| 1778080554 | 21.11° C | 85% | 1011.4 hPa | 0.25 mm | - | - | - |
| 1778079960 | 20.56° C | 86% | 1011.4 hPa | 0.51 mm | - | - | - |
| 1778079342 | 20.56° C | 87% | 1011.6 hPa | 0.51 mm | - | - | - |
| 1778076938 | 19.44° C | 89% | 1011.3 hPa | 0.25 mm | - | - | - |
| 1778076342 | 20° C | 88% | 1012 hPa | 0 mm | - | - | - |
| 1778074545 | 20.56° C | 86% | 1012.1 hPa | 0 mm | - | - | - |
| 1778072138 | 20.56° C | 83% | 1011.6 hPa | 0 mm | - | - | - |
| 1778070348 | 21.11° C | 81% | 1010.8 hPa | 0 mm | - | - | - |
| 1778069153 | 21.11° C | 81% | 1010.7 hPa | 0 mm | - | - | - |
| 1778068547 | 21.11° C | 81% | 1010.4 hPa | 0 mm | - | - | - |
| 1778066140 | 21.11° C | 79% | 1009.7 hPa | 0 mm | - | - | - |
| 1778064341 | 21.11° C | 78% | 1009.8 hPa | 0 mm | - | - | - |
| 1778063736 | 21.11° C | 78% | 1009.7 hPa | 0 mm | - | - | - |
* Rain latest hour (hover to see other rain measurements)
** Current wind speed in m/s (hover to see current wind gust speed)